Time;durP1;ratioP1;P1;durP2;ratioP2;P2;SDS_P1;SDS_P2;PMS_P1;PMS_P2;Temp;Humidity;BMP_temperature;BMP_pressure;BME280_temperature;BME280_humidity;BME280_pressure;Samples;Min_cycle;Max_cycle;Signal;HPM_P1;HPM_P2
2023/03/18 00:00:25;;;;;;;;;;;5.12;3.57;;;;;;2669760;76;20969;-89
2023/03/18 00:03:53;;;;;;;;;;;5.08;3.53;;;;;;2669667;76;21018;-90
2023/03/18 00:07:21;;;;;;;;;;;5.00;3.49;;;;;;2668932;76;20857;-89
2023/03/18 00:10:49;;;;;;;;;;;4.96;3.63;;;;;;2667657;76;21007;-90
2023/03/18 00:14:18;;;;;;;;;;;4.98;3.70;;;;;;2668496;76;20958;-89
2023/03/18 00:17:47;;;;;;;;;;;4.96;3.82;;;;;;2669197;76;20627;-89
2023/03/18 00:21:15;;;;;;;;;;;4.95;3.77;;;;;;2669270;76;20830;-90
2023/03/18 00:24:48;;;;;;;;;;;4.94;3.75;;;;;;2669132;76;20470;-89
2023/03/18 00:28:13;;;;;;;;;;;4.90;3.81;;;;;;2669368;76;20496;-90
2023/03/18 00:31:42;;;;;;;;;;;4.90;4.03;;;;;;2670230;76;20940;-89
2023/03/18 00:35:11;;;;;;;;;;;4.86;3.96;;;;;;2670744;76;20891;-90
2023/03/18 00:38:39;;;;;;;;;;;4.84;3.96;;;;;;2669731;76;20335;-89
2023/03/18 00:42:09;;;;;;;;;;;4.84;3.90;;;;;;2670550;76;20474;-89
2023/03/18 00:45:37;;;;;;;;;;;4.76;3.81;;;;;;2670647;76;20356;-90
2023/03/18 00:49:06;;;;;;;;;;;4.74;3.82;;;;;;2669203;76;20646;-90
2023/03/18 00:52:34;;;;;;;;;;;4.67;3.82;;;;;;2671171;76;21028;-90
2023/03/18 00:56:02;;;;;;;;;;;4.65;3.93;;;;;;2670411;76;20444;-90
2023/03/18 00:59:32;;;;;;;;;;;4.63;3.99;;;;;;2670390;76;20334;-90
2023/03/18 01:03:03;;;;;;;;;;;4.60;4.02;;;;;;2670810;76;20453;-90
2023/03/18 01:06:31;;;;;;;;;;;4.60;3.90;;;;;;2668709;76;20501;-90
2023/03/18 01:10:00;;;;;;;;;;;4.54;3.83;;;;;;2670391;76;20905;-90
2023/03/18 01:13:28;;;;;;;;;;;4.51;3.76;;;;;;2670546;76;20429;-90
2023/03/18 01:16:56;;;;;;;;;;;4.47;3.75;;;;;;2669611;76;20372;-90
2023/03/18 01:20:24;;;;;;;;;;;4.45;3.74;;;;;;2669480;76;20469;-90
2023/03/18 01:23:53;;;;;;;;;;;4.41;3.74;;;;;;2670234;76;20442;-90
2023/03/18 01:27:21;;;;;;;;;;;4.37;3.90;;;;;;2669174;76;20436;-90
2023/03/18 01:30:49;;;;;;;;;;;4.34;4.02;;;;;;2670881;76;20310;-89
2023/03/18 01:34:17;;;;;;;;;;;4.32;3.94;;;;;;2670464;76;20341;-89
2023/03/18 01:37:45;;;;;;;;;;;4.30;3.87;;;;;;2670451;76;20452;-89
2023/03/18 01:41:13;;;;;;;;;;;4.27;3.86;;;;;;2670964;76;20417;-89
2023/03/18 01:44:42;;;;;;;;;;;4.26;3.83;;;;;;2669279;76;20489;-89
2023/03/18 01:48:11;;;;;;;;;;;4.19;3.96;;;;;;2670033;76;20445;-90
2023/03/18 01:51:39;;;;;;;;;;;4.17;4.11;;;;;;2671043;76;20452;-89
2023/03/18 01:55:08;;;;;;;;;;;4.15;4.16;;;;;;2670767;76;20894;-89
2023/03/18 01:58:37;;;;;;;;;;;4.15;4.18;;;;;;2670917;76;20450;-89
2023/03/18 02:02:05;;;;;;;;;;;4.16;4.14;;;;;;2670333;76;20482;-89
2023/03/18 02:05:34;;;;;;;;;;;4.16;4.30;;;;;;2670209;76;20447;-90
2023/03/18 02:09:05;;;;;;;;;;;4.09;4.38;;;;;;2670390;76;20503;-90
2023/03/18 02:12:34;;;;;;;;;;;4.09;4.45;;;;;;2670880;76;20967;-88
2023/03/18 02:16:02;;;;;;;;;;;4.10;4.33;;;;;;2669495;76;20380;-89
2023/03/18 02:19:30;;;;;;;;;;;4.09;4.31;;;;;;2670460;76;20452;-89
2023/03/18 02:22:59;;;;;;;;;;;4.08;4.36;;;;;;2670598;76;20422;-89
2023/03/18 02:26:27;;;;;;;;;;;4.07;4.46;;;;;;2669739;76;20468;-89
2023/03/18 02:29:56;;;;;;;;;;;4.07;4.47;;;;;;2669667;76;20485;-89
2023/03/18 02:33:24;;;;;;;;;;;4.07;4.49;;;;;;2670252;76;20437;-88
2023/03/18 02:36:52;;;;;;;;;;;4.04;4.41;;;;;;2670374;76;20847;-89
2023/03/18 02:40:21;;;;;;;;;;;4.02;4.34;;;;;;2670923;76;20444;-89
2023/03/18 02:43:49;;;;;;;;;;;3.99;4.35;;;;;;2671003;76;20474;-89
2023/03/18 02:47:17;;;;;;;;;;;3.95;4.37;;;;;;2670524;76;20442;-89
2023/03/18 02:50:46;;;;;;;;;;;3.94;4.60;;;;;;2671184;76;20452;-89
2023/03/18 02:54:14;;;;;;;;;;;3.94;4.65;;;;;;2670168;76;21211;-89
2023/03/18 02:57:42;;;;;;;;;;;3.94;4.64;;;;;;2670476;76;20457;-89
2023/03/18 03:01:11;;;;;;;;;;;3.93;4.67;;;;;;2670134;76;20525;-89
2023/03/18 03:04:39;;;;;;;;;;;3.98;4.71;;;;;;2668029;76;20450;-89
2023/03/18 03:08:07;;;;;;;;;;;4.00;4.77;;;;;;2669895;76;20451;-90
2023/03/18 03:11:35;;;;;;;;;;;4.02;4.90;;;;;;2670425;76;20478;-89
2023/03/18 03:15:03;;;;;;;;;;;4.07;5.13;;;;;;2670776;76;20499;-89
2023/03/18 03:18:31;;;;;;;;;;;4.14;5.20;;;;;;2670167;76;20482;-89
2023/03/18 03:21:59;;;;;;;;;;;4.19;5.19;;;;;;2671151;76;20329;-90
2023/03/18 03:25:27;;;;;;;;;;;4.18;5.22;;;;;;2670878;76;20445;-90
2023/03/18 03:32:35;;;;;;;;;;;4.27;5.26;;;;;;2669304;76;20828;-89
2023/03/18 03:36:04;;;;;;;;;;;4.26;5.34;;;;;;2670362;76;20890;-90
2023/03/18 03:39:32;;;;;;;;;;;4.29;5.39;;;;;;2670353;76;20988;-90
2023/03/18 03:43:16;;;;;;;;;;;4.32;5.43;;;;;;2668128;76;20501;-90
2023/03/18 03:46:31;;;;;;;;;;;4.36;5.42;;;;;;2668371;76;20432;-90
2023/03/18 03:49:59;;;;;;;;;;;4.34;5.50;;;;;;2668888;76;20411;-89
2023/03/18 03:53:27;;;;;;;;;;;4.38;5.57;;;;;;2670112;76;20996;-89
2023/03/18 03:57:02;;;;;;;;;;;4.36;5.60;;;;;;2670374;76;20373;-89
2023/03/18 04:00:31;;;;;;;;;;;4.41;5.73;;;;;;2670039;76;20427;-89
2023/03/18 04:04:01;;;;;;;;;;;4.42;5.77;;;;;;2670772;76;20459;-89
2023/03/18 04:07:33;;;;;;;;;;;4.45;5.75;;;;;;2671220;76;20489;-89
2023/03/18 04:11:02;;;;;;;;;;;4.43;5.67;;;;;;2670800;76;21174;-89
2023/03/18 04:14:30;;;;;;;;;;;4.43;5.74;;;;;;2669916;76;20449;-90
2023/03/18 04:18:03;;;;;;;;;;;4.42;5.74;;;;;;2670832;76;20506;-88
2023/03/18 04:21:29;;;;;;;;;;;4.41;5.72;;;;;;2670579;76;20419;-90
2023/03/18 04:24:57;;;;;;;;;;;4.41;5.68;;;;;;2670589;76;20413;-90
2023/03/18 04:28:25;;;;;;;;;;;4.32;5.83;;;;;;2669906;76;20485;-90
2023/03/18 04:31:53;;;;;;;;;;;4.33;5.99;;;;;;2670090;76;20445;-90
2023/03/18 04:35:27;;;;;;;;;;;4.33;6.00;;;;;;2670418;76;20434;-91
2023/03/18 04:38:51;;;;;;;;;;;4.34;6.02;;;;;;2670461;76;20448;-90
2023/03/18 04:42:20;;;;;;;;;;;4.34;5.95;;;;;;2670065;76;20412;-90
2023/03/18 04:45:48;;;;;;;;;;;4.32;5.94;;;;;;2671337;76;20453;-90
2023/03/18 04:49:16;;;;;;;;;;;4.33;5.90;;;;;;2670655;76;20414;-89
2023/03/18 04:52:44;;;;;;;;;;;4.32;5.94;;;;;;2669687;76;20420;-91
2023/03/18 04:56:13;;;;;;;;;;;4.30;5.99;;;;;;2669507;76;20423;-90
2023/03/18 04:59:41;;;;;;;;;;;4.32;6.05;;;;;;2670366;76;20434;-90
2023/03/18 05:03:09;;;;;;;;;;;4.32;5.99;;;;;;2669836;76;20437;-89
2023/03/18 05:06:37;;;;;;;;;;;4.31;5.96;;;;;;2670279;76;20418;-89
2023/03/18 05:10:10;;;;;;;;;;;4.29;6.00;;;;;;2669134;76;20437;-89
2023/03/18 05:13:35;;;;;;;;;;;4.30;6.04;;;;;;2669771;76;20318;-88
2023/03/18 05:17:03;;;;;;;;;;;4.33;6.09;;;;;;2670635;76;20430;-90
2023/03/18 05:20:31;;;;;;;;;;;4.29;6.16;;;;;;2669478;76;20439;-90
2023/03/18 05:24:00;;;;;;;;;;;4.30;6.34;;;;;;2670709;76;20432;-89
2023/03/18 05:27:28;;;;;;;;;;;4.33;6.40;;;;;;2670256;76;20320;-90
2023/03/18 05:30:56;;;;;;;;;;;4.41;6.36;;;;;;2670301;76;20351;-90
2023/03/18 05:34:25;;;;;;;;;;;4.49;6.35;;;;;;2669643;76;20446;-90
2023/03/18 05:37:54;;;;;;;;;;;4.58;6.25;;;;;;2669795;76;20440;-90
2023/03/18 05:41:23;;;;;;;;;;;4.62;6.28;;;;;;2669537;76;20439;-89
2023/03/18 05:44:51;;;;;;;;;;;4.75;6.28;;;;;;2670820;76;20452;-89
2023/03/18 05:48:19;;;;;;;;;;;4.77;6.12;;;;;;2669999;76;20458;-88
2023/03/18 05:51:47;;;;;;;;;;;4.83;6.29;;;;;;2670323;76;20303;-89
2023/03/18 05:55:15;;;;;;;;;;;4.91;6.19;;;;;;2670529;76;20322;-89
2023/03/18 05:58:43;;;;;;;;;;;4.98;6.26;;;;;;2669361;76;20330;-90
2023/03/18 06:02:11;;;;;;;;;;;5.05;6.45;;;;;;2669416;76;20450;-90
2023/03/18 06:05:39;;;;;;;;;;;5.19;6.62;;;;;;2668162;76;20557;-90
2023/03/18 06:09:07;;;;;;;;;;;5.33;6.61;;;;;;2669161;76;20424;-89
2023/03/18 06:12:35;;;;;;;;;;;5.49;6.54;;;;;;2670091;76;20427;-90
2023/03/18 06:16:04;;;;;;;;;;;5.62;6.47;;;;;;2670788;76;20425;-88
2023/03/18 06:19:33;;;;;;;;;;;5.72;6.47;;;;;;2670220;76;20423;-89
2023/03/18 06:23:01;;;;;;;;;;;5.92;6.54;;;;;;2669192;76;20947;-90
2023/03/18 06:26:29;;;;;;;;;;;6.06;6.47;;;;;;2669715;76;20469;-90
2023/03/18 06:30:01;;;;;;;;;;;6.24;6.50;;;;;;2673408;76;20433;-90
2023/03/18 06:33:28;;;;;;;;;;;6.34;6.54;;;;;;2670132;76;20433;-90
2023/03/18 06:36:57;;;;;;;;;;;6.50;6.66;;;;;;2670385;76;20467;-90
2023/03/18 06:40:25;;;;;;;;;;;6.73;6.67;;;;;;2670431;76;20343;-89
2023/03/18 06:43:53;;;;;;;;;;;6.96;6.75;;;;;;2669925;76;20398;-89
2023/03/18 06:47:21;;;;;;;;;;;7.19;6.79;;;;;;2670197;76;20576;-89
2023/03/18 06:50:49;;;;;;;;;;;7.40;6.73;;;;;;2670251;76;20441;-89
2023/03/18 06:54:18;;;;;;;;;;;7.70;7.03;;;;;;2669328;76;20449;-89
2023/03/18 06:57:46;;;;;;;;;;;8.00;6.99;;;;;;2670602;76;20312;-89
2023/03/18 07:01:14;;;;;;;;;;;8.21;6.99;;;;;;2670118;76;20420;-89
2023/03/18 07:04:42;;;;;;;;;;;8.49;7.08;;;;;;2669453;76;20426;-89
2023/03/18 07:08:15;;;;;;;;;;;8.74;7.06;;;;;;2669465;76;20434;-89
2023/03/18 07:11:45;;;;;;;;;;;8.86;6.96;;;;;;2669373;76;20953;-90
2023/03/18 07:15:13;;;;;;;;;;;9.10;7.38;;;;;;2669682;76;20894;-90
2023/03/18 07:18:41;;;;;;;;;;;9.33;7.24;;;;;;2670471;76;20429;-89
2023/03/18 07:22:11;;;;;;;;;;;9.64;7.32;;;;;;2670426;76;20445;-89
2023/03/18 07:25:40;;;;;;;;;;;9.94;7.20;;;;;;2670513;76;20952;-89
2023/03/18 07:29:09;;;;;;;;;;;10.12;7.00;;;;;;2670039;76;20423;-89
2023/03/18 07:32:37;;;;;;;;;;;10.38;7.23;;;;;;2668091;76;20459;-89
2023/03/18 07:36:06;;;;;;;;;;;10.63;7.16;;;;;;2669426;76;20346;-89
2023/03/18 07:39:34;;;;;;;;;;;10.83;6.89;;;;;;2668368;76;20936;-90
2023/03/18 07:43:02;;;;;;;;;;;11.00;6.85;;;;;;2669004;76;21249;-89
2023/03/18 07:46:30;;;;;;;;;;;11.22;6.87;;;;;;2666565;76;21016;-89
2023/03/18 07:49:58;;;;;;;;;;;11.49;6.96;;;;;;2666980;76;20525;-89
2023/03/18 07:53:27;;;;;;;;;;;11.78;6.85;;;;;;2668003;76;20431;-87
2023/03/18 07:56:55;;;;;;;;;;;12.05;6.89;;;;;;2668687;76;20953;-90
2023/03/18 08:00:24;;;;;;;;;;;12.30;6.76;;;;;;2668158;76;20470;-91
2023/03/18 08:03:52;;;;;;;;;;;12.49;6.54;;;;;;2668492;76;20335;-90
2023/03/18 08:07:21;;;;;;;;;;;12.55;5.69;;;;;;2667752;76;20436;-90
2023/03/18 08:10:50;;;;;;;;;;;12.79;6.18;;;;;;2668401;76;20412;-89
2023/03/18 08:14:18;;;;;;;;;;;13.04;6.12;;;;;;2671358;76;20416;-89
2023/03/18 08:17:46;;;;;;;;;;;13.23;6.08;;;;;;2669447;76;20450;-90
2023/03/18 08:21:14;;;;;;;;;;;13.35;5.86;;;;;;2668590;76;20443;-91
2023/03/18 08:24:44;;;;;;;;;;;13.49;5.90;;;;;;2668317;76;20459;-91
2023/03/18 08:28:12;;;;;;;;;;;13.62;5.75;;;;;;2667290;76;20455;-90
2023/03/18 08:31:40;;;;;;;;;;;13.73;5.48;;;;;;2667746;76;20384;-91
2023/03/18 08:35:11;;;;;;;;;;;13.77;4.65;;;;;;2667087;76;20476;-91
2023/03/18 08:38:39;;;;;;;;;;;13.91;4.35;;;;;;2670341;76;20451;-92
2023/03/18 08:42:07;;;;;;;;;;;13.95;4.48;;;;;;2667923;76;20433;-91
2023/03/18 08:45:35;;;;;;;;;;;14.11;4.69;;;;;;2668136;76;20428;-90
2023/03/18 08:49:03;;;;;;;;;;;14.22;4.19;;;;;;2668858;76;20451;-90
2023/03/18 08:52:32;;;;;;;;;;;14.30;4.19;;;;;;2669411;76;20459;-90
2023/03/18 08:56:01;;;;;;;;;;;14.30;2.04;;;;;;2668707;76;20411;-90
2023/03/18 08:59:30;;;;;;;;;;;14.34;1.15;;;;;;2667504;76;20433;-90
2023/03/18 09:02:58;;;;;;;;;;;14.40;-1.09;;;;;;2669880;76;20975;-90
2023/03/18 09:06:26;;;;;;;;;;;14.67;0.06;;;;;;2671050;76;20996;-90
2023/03/18 09:09:54;;;;;;;;;;;14.69;-2.24;;;;;;2669906;76;20421;-91
2023/03/18 09:13:22;;;;;;;;;;;14.87;-2.81;;;;;;2668624;76;20438;-90
2023/03/18 09:16:51;;;;;;;;;;;15.03;-2.75;;;;;;2669835;76;20587;-91
2023/03/18 09:20:19;;;;;;;;;;;15.15;-3.62;;;;;;2667487;76;20465;-92
2023/03/18 09:23:48;;;;;;;;;;;15.28;-3.74;;;;;;2669641;76;20524;-88
2023/03/18 09:27:16;;;;;;;;;;;15.42;-5.07;;;;;;2667173;76;20418;-90
2023/03/18 09:30:44;;;;;;;;;;;15.73;-4.60;;;;;;2665597;76;22061;-90
2023/03/18 09:34:27;;;;;;;;;;;15.91;-3.98;;;;;;2667734;76;20434;-90
2023/03/18 09:37:52;;;;;;;;;;;15.52;118.14;;;;;;2668665;76;20319;-91
2023/03/18 09:41:20;;;;;;;;;;;15.37;116.46;;;;;;2670681;76;20428;-89
2023/03/18 09:44:49;;;;;;;;;;;15.07;114.24;;;;;;2670476;76;20444;-91
2023/03/18 09:48:17;;;;;;;;;;;14.97;113.59;;;;;;2671148;76;20411;-91
2023/03/18 09:51:45;;;;;;;;;;;14.92;114.13;;;;;;2670505;76;20322;-90
2023/03/18 09:55:13;;;;;;;;;;;14.59;113.64;;;;;;2670608;76;20452;-90
2023/03/18 09:58:41;;;;;;;;;;;14.78;114.10;;;;;;2674833;76;20429;-95
2023/03/18 10:02:09;;;;;;;;;;;14.69;113.00;;;;;;2674591;76;20432;-95
2023/03/18 10:05:38;;;;;;;;;;;15.01;113.01;;;;;;2671432;76;20472;-88
2023/03/18 10:09:06;;;;;;;;;;;15.01;113.32;;;;;;2670796;76;20461;-89
2023/03/18 10:12:35;;;;;;;;;;;15.40;113.73;;;;;;2670238;76;20557;-90
2023/03/18 10:16:03;;;;;;;;;;;15.65;113.11;;;;;;2670487;76;20910;-90
2023/03/18 10:19:31;;;;;;;;;;;15.60;111.95;;;;;;2669021;76;20878;-90
2023/03/18 10:22:59;;;;;;;;;;;15.85;111.82;;;;;;2669673;76;20896;-91
2023/03/18 10:26:27;;;;;;;;;;;16.08;111.39;;;;;;2669497;76;20485;-92
2023/03/18 10:29:56;;;;;;;;;;;16.25;111.10;;;;;;2669315;76;20491;-89
2023/03/18 10:33:24;;;;;;;;;;;16.40;111.46;;;;;;2669201;76;20416;-92
2023/03/18 10:36:54;;;;;;;;;;;16.29;109.94;;;;;;2667813;76;20428;-93
2023/03/18 10:40:22;;;;;;;;;;;16.28;109.55;;;;;;2667649;76;20438;-90
2023/03/18 10:43:50;;;;;;;;;;;16.01;107.85;;;;;;2668676;76;20470;-89
2023/03/18 10:47:19;;;;;;;;;;;15.97;107.43;;;;;;2670642;76;20495;-91
2023/03/18 10:50:47;;;;;;;;;;;16.04;108.88;;;;;;2668819;76;20408;-92
2023/03/18 10:54:16;;;;;;;;;;;16.06;109.74;;;;;;2668819;76;20433;-89
2023/03/18 10:57:44;;;;;;;;;;;16.00;110.10;;;;;;2670027;76;20492;-90
2023/03/18 11:01:13;;;;;;;;;;;15.74;108.49;;;;;;2670141;76;20435;-91
2023/03/18 11:04:42;;;;;;;;;;;15.73;108.49;;;;;;2669133;76;20978;-92
2023/03/18 11:08:10;;;;;;;;;;;15.72;108.66;;;;;;2670605;76;20379;-89
2023/03/18 11:11:38;;;;;;;;;;;15.73;108.40;;;;;;2670896;76;20438;-90
2023/03/18 11:15:07;;;;;;;;;;;15.76;107.11;;;;;;2670866;76;20443;-86
2023/03/18 11:18:35;;;;;;;;;;;15.80;107.65;;;;;;2670392;76;20433;-90
2023/03/18 11:22:06;;;;;;;;;;;15.70;107.17;;;;;;2668484;76;20488;-91
2023/03/18 11:25:34;;;;;;;;;;;15.71;107.63;;;;;;2669627;76;20442;-94
2023/03/18 11:29:02;;;;;;;;;;;15.70;108.14;;;;;;2667935;76;20791;-90
2023/03/18 11:32:30;;;;;;;;;;;15.72;108.38;;;;;;2668666;76;21116;-89
2023/03/18 11:35:58;;;;;;;;;;;15.78;107.80;;;;;;2669615;76;20434;-90
2023/03/18 11:39:27;;;;;;;;;;;15.83;107.07;;;;;;2670549;76;20940;-89
2023/03/18 11:42:56;;;;;;;;;;;15.82;106.75;;;;;;2668829;76;20298;-89
2023/03/18 11:46:24;;;;;;;;;;;15.76;107.04;;;;;;2670064;76;20441;-89
2023/03/18 11:49:53;;;;;;;;;;;15.81;106.79;;;;;;2670265;76;20798;-91
2023/03/18 11:53:21;;;;;;;;;;;15.87;107.07;;;;;;2670348;76;20457;-90
2023/03/18 11:56:49;;;;;;;;;;;15.90;106.95;;;;;;2669581;76;20421;-89
2023/03/18 12:00:18;;;;;;;;;;;15.85;106.89;;;;;;2670531;76;22251;-89
2023/03/18 12:03:46;;;;;;;;;;;15.74;107.53;;;;;;2670765;76;20477;-90
2023/03/18 12:07:14;;;;;;;;;;;15.63;107.49;;;;;;2670706;76;20321;-91
2023/03/18 12:10:47;;;;;;;;;;;15.77;106.27;;;;;;2670255;76;20474;-91
2023/03/18 12:14:12;;;;;;;;;;;15.85;105.90;;;;;;2670756;76;20324;-91
2023/03/18 12:17:41;;;;;;;;;;;15.82;105.98;;;;;;2670144;76;20423;-91
2023/03/18 12:21:09;;;;;;;;;;;15.85;106.69;;;;;;2668539;76;20758;-90
2023/03/18 12:24:37;;;;;;;;;;;15.90;106.24;;;;;;2670703;76;20410;-89
2023/03/18 12:28:06;;;;;;;;;;;16.00;106.68;;;;;;2669657;76;20440;-92
2023/03/18 12:31:34;;;;;;;;;;;15.96;105.95;;;;;;2669548;76;20432;-92
2023/03/18 12:35:02;;;;;;;;;;;16.00;105.12;;;;;;2669798;76;20534;-89
2023/03/18 12:38:30;;;;;;;;;;;16.22;104.34;;;;;;2670339;76;20920;-91
2023/03/18 12:41:59;;;;;;;;;;;16.17;104.84;;;;;;2668174;76;20470;-91
2023/03/18 12:45:28;;;;;;;;;;;16.20;104.94;;;;;;2667347;76;20437;-89
2023/03/18 12:48:56;;;;;;;;;;;16.20;104.98;;;;;;2667446;76;20885;-89
2023/03/18 12:52:44;;;;;;;;;;;;;;;;;;;;;
2023/03/18 13:00:14;;;;;;;;;;;16.36;105.99;;;;;;2667479;76;20487;-88
2023/03/18 13:03:57;;;;;;;;;;;16.40;105.92;;;;;;2668778;76;20463;-91
2023/03/18 13:07:25;;;;;;;;;;;16.27;105.65;;;;;;2669617;76;20441;-94
2023/03/18 13:10:55;;;;;;;;;;;16.16;105.97;;;;;;2669962;76;20733;-90
2023/03/18 13:14:43;;;;;;;;;;;16.16;106.39;;;;;;2669406;76;20848;-89
2023/03/18 13:18:07;;;;;;;;;;;16.02;105.93;;;;;;2671062;76;20990;-90
2023/03/18 13:21:35;;;;;;;;;;;16.13;105.97;;;;;;2673230;76;20482;-90
2023/03/18 13:25:04;;;;;;;;;;;16.21;106.04;;;;;;2670438;76;20451;-90
2023/03/18 13:28:33;;;;;;;;;;;16.21;105.37;;;;;;2669657;76;20940;-90
2023/03/18 13:32:01;;;;;;;;;;;16.42;105.13;;;;;;2669119;76;20457;-89
2023/03/18 13:35:29;;;;;;;;;;;16.57;104.44;;;;;;2669458;76;20475;-90
2023/03/18 13:38:57;;;;;;;;;;;16.59;104.05;;;;;;2668460;76;20477;-90
2023/03/18 13:42:26;;;;;;;;;;;16.59;103.65;;;;;;2669071;76;20373;-88
2023/03/18 13:45:54;;;;;;;;;;;16.55;103.54;;;;;;2667679;76;20755;-87
2023/03/18 13:49:22;;;;;;;;;;;16.56;104.20;;;;;;2666874;76;20536;-89
2023/03/18 13:56:35;;;;;;;;;;;16.72;103.33;;;;;;2668636;76;20506;-90
2023/03/18 14:00:03;;;;;;;;;;;16.63;103.16;;;;;;2668742;76;20449;-89
2023/03/18 14:03:34;;;;;;;;;;;16.65;102.97;;;;;;2668583;76;20699;-88
2023/03/18 14:07:07;;;;;;;;;;;16.69;102.96;;;;;;2669826;76;21031;-88
2023/03/18 14:10:35;;;;;;;;;;;16.67;103.20;;;;;;2668647;76;20459;-84
2023/03/18 14:14:04;;;;;;;;;;;16.67;103.06;;;;;;2668058;76;20497;-86
2023/03/18 14:17:33;;;;;;;;;;;16.76;103.21;;;;;;2668060;76;20477;-86
2023/03/18 14:21:03;;;;;;;;;;;16.89;103.12;;;;;;2668556;76;20534;-85
2023/03/18 14:24:33;;;;;;;;;;;17.03;103.30;;;;;;2669571;76;21110;-88
2023/03/18 14:28:15;;;;;;;;;;;17.15;103.41;;;;;;2669508;76;20737;-87
2023/03/18 14:32:09;;;;;;;;;;;17.16;102.99;;;;;;2670225;76;20829;-89
2023/03/18 14:35:52;;;;;;;;;;;;;;;;;;;;;
2023/03/18 14:39:20;;;;;;;;;;;17.43;102.99;;;;;;2669593;76;20373;-89
2023/03/18 14:42:45;;;;;;;;;;;17.50;102.86;;;;;;2669543;76;21030;-89
2023/03/18 14:46:13;;;;;;;;;;;17.54;103.18;;;;;;2670462;76;20476;-87
2023/03/18 14:49:42;;;;;;;;;;;17.60;103.35;;;;;;2668257;76;20462;-88
2023/03/18 14:53:10;;;;;;;;;;;17.74;103.21;;;;;;2669370;76;20482;-89
2023/03/18 14:56:39;;;;;;;;;;;17.80;101.93;;;;;;2670395;76;20467;-86
2023/03/18 15:00:09;;;;;;;;;;;17.98;101.15;;;;;;2668924;76;20457;-86
2023/03/18 15:03:53;;;;;;;;;;;18.08;101.53;;;;;;2670578;76;20460;-88
2023/03/18 15:07:11;;;;;;;;;;;18.20;101.64;;;;;;2669863;76;20438;-89
2023/03/18 15:10:41;;;;;;;;;;;18.23;101.35;;;;;;2668773;76;20357;-87
2023/03/18 15:14:14;;;;;;;;;;;18.26;102.13;;;;;;2667595;76;20463;-87
2023/03/18 15:17:42;;;;;;;;;;;18.28;101.62;;;;;;2669138;76;20459;-87
2023/03/18 15:21:13;;;;;;;;;;;19.02;101.64;;;;;;2669398;76;20364;-86
2023/03/18 15:24:40;;;;;;;;;;;20.49;99.35;;;;;;2669573;76;20957;-88
2023/03/18 15:28:11;;;;;;;;;;;20.24;98.29;;;;;;2669192;76;20436;-85
2023/03/18 15:31:40;;;;;;;;;;;21.13;98.42;;;;;;2667885;76;20926;-88
2023/03/18 15:35:09;;;;;;;;;;;24.32;94.13;;;;;;2667790;76;20913;-88
2023/03/18 15:38:44;;;;;;;;;;;23.65;92.33;;;;;;2665426;76;20474;-88
2023/03/18 15:42:27;;;;;;;;;;;21.39;94.84;;;;;;2667288;76;21163;-88
2023/03/18 15:45:49;;;;;;;;;;;20.55;95.89;;;;;;2668111;76;21082;-88
2023/03/18 15:49:18;;;;;;;;;;;20.58;96.37;;;;;;2667199;76;21465;-90
2023/03/18 15:52:56;;;;;;;;;;;;;;;;;;;;;
2023/03/18 15:56:19;;;;;;;;;;;19.72;96.87;;;;;;2667351;76;20425;-86
2023/03/18 15:59:48;;;;;;;;;;;19.22;97.47;;;;;;2667781;76;20503;-87
2023/03/18 16:03:26;;;;;;;;;;;;;;;;;;;;;
2023/03/18 16:06:46;;;;;;;;;;;18.44;99.41;;;;;;2667358;76;20326;-88
2023/03/18 16:10:21;;;;;;;;;;;18.24;99.73;;;;;;2667629;76;20844;-88
2023/03/18 16:13:49;;;;;;;;;;;17.96;99.69;;;;;;2669509;76;20444;-89
2023/03/18 16:17:18;;;;;;;;;;;17.55;100.22;;;;;;2667450;76;21160;-87
2023/03/18 16:20:46;;;;;;;;;;;17.34;100.64;;;;;;2668313;76;20442;-86
2023/03/18 16:24:15;;;;;;;;;;;17.24;100.94;;;;;;2665588;76;20448;-88
2023/03/18 16:27:44;;;;;;;;;;;17.13;101.15;;;;;;2669657;76;20508;-89
2023/03/18 16:31:15;;;;;;;;;;;16.99;101.54;;;;;;2667505;76;20553;-86
2023/03/18 16:34:45;;;;;;;;;;;16.79;101.86;;;;;;2664689;76;20521;-85
2023/03/18 16:38:19;;;;;;;;;;;16.51;102.23;;;;;;2668518;76;20451;-85
2023/03/18 16:41:44;;;;;;;;;;;16.28;102.70;;;;;;2669332;76;20462;-87
2023/03/18 16:45:12;;;;;;;;;;;16.08;103.15;;;;;;2666321;76;20461;-89
2023/03/18 16:48:42;;;;;;;;;;;15.92;103.23;;;;;;2666229;76;20510;-86
2023/03/18 16:52:18;;;;;;;;;;;15.71;103.31;;;;;;2665143;76;20521;-85
2023/03/18 16:55:45;;;;;;;;;;;15.53;103.53;;;;;;2666136;76;20944;-86
2023/03/18 16:59:14;;;;;;;;;;;15.41;103.79;;;;;;2664624;76;20475;-84
2023/03/18 17:02:42;;;;;;;;;;;15.31;104.02;;;;;;2666251;76;20505;-84
2023/03/18 17:06:11;;;;;;;;;;;15.15;104.21;;;;;;2665132;76;20724;-84
2023/03/18 17:09:39;;;;;;;;;;;14.97;104.55;;;;;;2666144;76;20441;-85
2023/03/18 17:13:07;;;;;;;;;;;14.73;104.92;;;;;;2665556;76;20495;-87
2023/03/18 17:16:36;;;;;;;;;;;14.49;105.15;;;;;;2666267;76;20441;-84
2023/03/18 17:20:04;;;;;;;;;;;14.20;105.57;;;;;;2665599;76;20409;-85
2023/03/18 17:23:33;;;;;;;;;;;13.97;105.76;;;;;;2666932;76;20507;-86
2023/03/18 17:27:01;;;;;;;;;;;13.71;106.01;;;;;;2666598;76;20606;-85
2023/03/18 17:30:32;;;;;;;;;;;13.46;106.16;;;;;;2666423;76;20453;-86
2023/03/18 17:34:00;;;;;;;;;;;13.21;106.18;;;;;;2666944;76;20945;-87
2023/03/18 17:37:29;;;;;;;;;;;12.94;106.30;;;;;;2665435;76;20465;-86
2023/03/18 17:40:57;;;;;;;;;;;12.66;106.49;;;;;;2666703;76;20420;-86
2023/03/18 17:44:25;;;;;;;;;;;12.44;106.72;;;;;;2666338;76;20441;-89
2023/03/18 17:48:11;;;;;;;;;;;12.26;106.92;;;;;;2664108;76;20471;-90
2023/03/18 17:51:40;;;;;;;;;;;12.08;107.11;;;;;;2663911;76;20456;-85
2023/03/18 17:55:10;;;;;;;;;;;11.92;107.40;;;;;;2665974;76;20504;-83
2023/03/18 17:58:39;;;;;;;;;;;11.76;107.77;;;;;;2664433;76;20473;-86
2023/03/18 18:02:07;;;;;;;;;;;11.63;108.03;;;;;;2666478;76;20480;-86
2023/03/18 18:05:35;;;;;;;;;;;11.52;108.18;;;;;;2666101;76;20451;-87
2023/03/18 18:09:05;;;;;;;;;;;11.41;108.33;;;;;;2664658;76;20525;-86
2023/03/18 18:12:37;;;;;;;;;;;11.31;108.48;;;;;;2665538;76;20516;-88
2023/03/18 18:16:07;;;;;;;;;;;11.18;108.69;;;;;;2665578;76;20475;-84
2023/03/18 18:19:36;;;;;;;;;;;11.04;108.91;;;;;;2666279;76;20496;-85
2023/03/18 18:23:07;;;;;;;;;;;10.95;109.15;;;;;;2665272;76;20523;-84
2023/03/18 18:26:35;;;;;;;;;;;10.86;109.36;;;;;;2665468;76;20480;-84
2023/03/18 18:30:03;;;;;;;;;;;10.75;109.52;;;;;;2665582;76;20461;-85
2023/03/18 18:33:36;;;;;;;;;;;10.67;109.73;;;;;;2666248;76;20500;-85
2023/03/18 18:37:02;;;;;;;;;;;10.56;109.95;;;;;;2665540;76;20644;-89
2023/03/18 18:40:37;;;;;;;;;;;10.49;110.17;;;;;;2667268;76;20513;-88
2023/03/18 18:44:05;;;;;;;;;;;10.40;110.37;;;;;;2666043;76;20488;-90
2023/03/18 18:51:21;;;;;;;;;;;10.22;110.78;;;;;;2666948;76;20914;-88
2023/03/18 18:54:54;;;;;;;;;;;10.13;110.95;;;;;;2668566;76;20456;-87
2023/03/18 18:58:38;;;;;;;;;;;10.05;111.16;;;;;;2667698;76;20562;-87
2023/03/18 19:02:05;;;;;;;;;;;9.95;111.32;;;;;;2666273;76;20488;-86
2023/03/18 19:09:31;;;;;;;;;;;9.79;111.75;;;;;;2667348;76;20425;-86
2023/03/18 19:13:02;;;;;;;;;;;9.75;112.00;;;;;;2666739;76;20431;-88
2023/03/18 19:16:30;;;;;;;;;;;9.70;112.19;;;;;;2667344;76;20436;-87
2023/03/18 19:20:03;;;;;;;;;;;9.67;112.34;;;;;;2666747;76;20468;-86
2023/03/18 19:23:36;;;;;;;;;;;9.63;112.52;;;;;;2667202;76;20482;-87
2023/03/18 19:27:09;;;;;;;;;;;9.54;112.66;;;;;;2667650;76;20427;-87
2023/03/18 19:30:32;;;;;;;;;;;9.52;112.77;;;;;;2666333;76;20437;-88
2023/03/18 19:34:05;;;;;;;;;;;9.45;112.97;;;;;;2666738;76;20474;-88
2023/03/18 19:37:34;;;;;;;;;;;9.40;113.09;;;;;;2667629;76;20503;-89
2023/03/18 19:41:04;;;;;;;;;;;9.35;113.24;;;;;;2668355;76;20429;-88
2023/03/18 19:44:33;;;;;;;;;;;9.29;113.45;;;;;;2666746;76;20478;-84
2023/03/18 19:48:01;;;;;;;;;;;9.23;113.68;;;;;;2666750;76;20418;-88
2023/03/18 19:51:32;;;;;;;;;;;9.18;113.77;;;;;;2667730;76;21055;-87
2023/03/18 19:55:07;;;;;;;;;;;9.12;113.90;;;;;;2666765;76;20482;-87
2023/03/18 19:58:30;;;;;;;;;;;9.08;114.06;;;;;;2669222;76;20431;-86
2023/03/18 20:01:58;;;;;;;;;;;9.04;114.22;;;;;;2667420;76;20438;-88
2023/03/18 20:05:26;;;;;;;;;;;9.01;114.32;;;;;;2669363;76;20430;-88
2023/03/18 20:08:54;;;;;;;;;;;8.96;114.60;;;;;;2669562;76;20469;-87
2023/03/18 20:12:23;;;;;;;;;;;8.93;114.74;;;;;;2666501;76;20460;-88
2023/03/18 20:16:06;;;;;;;;;;;8.90;114.81;;;;;;2668163;76;20489;-88
2023/03/18 20:19:34;;;;;;;;;;;8.80;115.00;;;;;;2667158;76;20538;-87
2023/03/18 20:23:02;;;;;;;;;;;8.79;115.15;;;;;;2668365;76;20476;-86
2023/03/18 20:26:30;;;;;;;;;;;8.74;115.31;;;;;;2666955;76;20479;-87
2023/03/18 20:29:59;;;;;;;;;;;8.72;115.41;;;;;;2667909;76;20483;-87
2023/03/18 20:33:27;;;;;;;;;;;8.70;115.51;;;;;;2668179;76;21283;-87
2023/03/18 20:36:56;;;;;;;;;;;8.64;115.64;;;;;;2667060;76;20808;-87
2023/03/18 20:40:24;;;;;;;;;;;8.60;115.74;;;;;;2668046;76;20479;-87
2023/03/18 20:43:52;;;;;;;;;;;8.57;115.87;;;;;;2667483;76;20446;-86
2023/03/18 20:47:20;;;;;;;;;;;8.51;116.18;;;;;;2667208;76;20455;-87